Time;durP1;ratioP1;P1;durP2;ratioP2;P2;SDS_P1;SDS_P2;PMS_P1;PMS_P2;Temp;Humidity;BMP_temperature;BMP_pressure;BME280_temperature;BME280_humidity;BME280_pressure;Samples;Min_cycle;Max_cycle;Signal;HPM_P1;HPM_P2
2023/01/02 00:02:09;;;;;;;41.33;23.60;;;;;;;7.29;67.13;102363.59;5117968;28;20269;-88
2023/01/02 00:04:34;;;;;;;42.88;23.80;;;;;;;7.02;67.40;102324.25;5113847;27;20283;-89
2023/01/02 00:07:00;;;;;;;39.50;21.50;;;;;;;7.02;67.64;102328.75;5139427;27;20023;-88
2023/01/02 00:09:25;;;;;;;35.97;20.63;;;;;;;7.12;67.51;102345.94;5117124;27;20020;-88
2023/01/02 00:11:51;;;;;;;35.45;21.27;;;;;;;7.06;67.40;102336.47;5128390;27;20035;-88
2023/01/02 00:14:17;;;;;;;36.25;20.50;;;;;;;7.19;67.45;102353.47;5131527;27;20047;-89
2023/01/02 00:16:42;;;;;;;34.03;19.58;;;;;;;7.13;67.47;102355.69;5127471;27;20035;-90
2023/01/02 00:19:08;;;;;;;34.50;18.02;;;;;;;7.04;67.73;102338.38;5131084;27;20031;-89
2023/01/02 00:21:33;;;;;;;26.40;16.27;;;;;;;6.89;67.45;102313.47;5113237;27;20497;-88
2023/01/02 00:23:59;;;;;;;27.77;16.73;;;;;;;7.08;67.42;102336.41;5105527;28;20141;-88
2023/01/02 00:26:24;;;;;;;27.50;16.23;;;;;;;7.11;67.55;102344.22;5120462;27;20058;-89
2023/01/02 00:28:50;;;;;;;32.15;16.85;;;;;;;7.13;67.45;102331.59;5137806;27;20023;-88
2023/01/02 00:31:15;;;;;;;28.95;16.42;;;;;;;6.80;67.77;102300.69;5102736;27;20038;-88
2023/01/02 00:33:42;;;;;;;30.05;18.10;;;;;;;6.94;67.72;102316.72;5125152;28;20035;-88
2023/01/02 00:36:09;;;;;;;31.13;16.60;;;;;;;7.15;67.47;102345.75;5133255;27;20031;-87
2023/01/02 00:38:35;;;;;;;24.92;15.45;;;;;;;7.09;67.39;102340.78;5093680;28;20086;-88
2023/01/02 00:41:01;;;;;;;23.98;15.40;;;;;;;6.88;67.66;102303.75;5109757;28;20023;-88
2023/01/02 00:43:27;;;;;;;26.30;16.50;;;;;;;7.02;67.34;102308.19;5097468;28;20472;-89
2023/01/02 00:45:53;;;;;;;23.98;15.32;;;;;;;7.00;67.29;102314.59;5118043;27;20020;-89
2023/01/02 00:48:18;;;;;;;23.08;15.30;;;;;;;7.09;67.14;102322.06;5103537;28;20030;-88
2023/01/02 00:50:44;;;;;;;28.75;15.57;;;;;;;6.94;66.94;102300.69;5109184;27;20046;-88
2023/01/02 00:53:10;;;;;;;23.08;15.00;;;;;;;7.09;67.00;102314.88;5123165;28;20031;-87
2023/01/02 00:55:35;;;;;;;25.33;14.93;;;;;;;6.96;66.95;102293.41;5088851;28;20036;-88
2023/01/02 00:58:01;;;;;;;23.63;14.27;;;;;;;7.13;67.20;102316.41;5121548;27;20027;-87
2023/01/02 01:00:26;;;;;;;23.05;13.82;;;;;;;7.22;66.92;102322.13;5112905;28;20027;-85
2023/01/02 01:02:56;;;;;;;23.55;15.02;;;;;;;7.07;66.92;102291.88;5110073;28;20027;-86
2023/01/02 01:05:22;;;;;;;24.67;15.15;;;;;;;7.16;66.92;102310.00;5108514;28;20024;-88
2023/01/02 01:07:47;;;;;;;;;;;;;;;7.22;66.81;102317.66;5104554;27;20060;-87
2023/01/02 01:10:13;;;;;;;;;;;;;;;7.20;66.89;102308.84;5125615;27;19919;-88
2023/01/02 01:12:38;;;;;;;21.77;13.93;;;;;;;6.88;67.10;102279.69;5132524;27;19975;-88
2023/01/02 01:15:05;;;;;;;23.17;14.80;;;;;;;7.17;67.28;102309.06;5111185;28;20034;-88
2023/01/02 01:17:31;;;;;;;23.48;14.77;;;;;;;7.05;67.28;102291.13;5094412;28;20020;-87
2023/01/02 01:19:56;;;;;;;23.70;14.77;;;;;;;7.12;67.13;102295.13;5096567;27;20151;-89
2023/01/02 01:22:22;;;;;;;25.70;14.63;;;;;;;7.00;67.24;102283.41;5095990;27;20031;-87
2023/01/02 01:24:47;;;;;;;21.50;13.87;;;;;;;7.02;67.39;102291.31;5126907;27;20307;-88
2023/01/02 01:27:13;;;;;;;24.25;14.80;;;;;;;7.12;67.18;102292.47;5122210;28;20046;-87
2023/01/02 01:29:39;;;;;;;22.97;14.40;;;;;;;7.13;66.97;102288.81;5095015;28;20039;-87
2023/01/02 01:32:04;;;;;;;27.07;14.20;;;;;;;7.07;67.02;102278.50;5125083;27;20257;-88
2023/01/02 01:34:30;;;;;;;24.43;14.90;;;;;;;7.18;66.94;102292.88;5140920;27;20272;-89
2023/01/02 01:36:55;;;;;;;23.00;14.27;;;;;;;7.16;66.97;102281.47;5106002;27;20269;-87
2023/01/02 01:39:21;;;;;;;23.98;14.95;;;;;;;7.27;66.98;102295.94;5121398;27;20026;-88
2023/01/02 01:41:46;;;;;;;22.17;14.52;;;;;;;7.09;66.80;102268.56;5127759;27;20039;-88
2023/01/02 01:44:57;;;;;;;24.23;13.73;;;;;;;7.29;66.71;102292.22;5130614;27;20040;-86
2023/01/02 01:47:38;;;;;;;23.85;13.25;;;;;;;7.02;66.86;102244.03;5134113;27;20027;-85
2023/01/02 01:50:06;;;;;;;21.92;13.45;;;;;;;7.21;66.80;102281.16;5129694;27;20023;-86
2023/01/02 01:52:32;;;;;;;20.95;13.70;;;;;;;7.20;66.92;102271.41;5140689;27;20139;-88
2023/01/02 01:54:59;;;;;;;;;;;;;;;7.18;66.96;102282.19;5106774;27;20045;-86
2023/01/02 01:57:40;;;;;;;17.98;11.63;;;;;;;7.14;67.07;102285.16;5139260;27;19962;-88
2023/01/02 02:00:08;;;;;;;22.27;13.38;;;;;;;6.94;67.25;102260.56;5088523;28;20020;-88
2023/01/02 02:02:34;;;;;;;20.55;11.88;;;;;;;6.95;67.05;102254.28;5137033;27;20112;-87
2023/01/02 02:05:01;;;;;;;18.08;11.98;;;;;;;7.04;66.96;102251.97;5105133;28;20015;-86
2023/01/02 02:07:27;;;;;;;21.10;12.60;;;;;;;6.93;66.76;102240.16;5120167;28;20034;-87
2023/01/02 02:09:55;;;;;;;19.83;13.23;;;;;;;7.13;66.92;102267.41;5129545;28;20034;-87
2023/01/02 02:12:21;;;;;;;22.38;13.05;;;;;;;6.98;66.92;102238.03;5123424;28;20038;-88
2023/01/02 02:14:46;;;;;;;;;;;;;;;7.14;67.00;102270.00;5112728;28;20031;-88
2023/01/02 02:17:53;;;;;;;17.13;11.60;;;;;;;6.95;67.13;102243.59;5130992;28;19919;-87
2023/01/02 02:20:32;;;;;;;19.40;11.43;;;;;;;7.10;67.29;102260.44;5118037;28;20045;-89
2023/01/02 02:23:26;;;;;;;18.95;12.05;;;;;;;7.14;67.20;102269.13;5114180;28;20072;-89
2023/01/02 02:26:11;;;;;;;19.92;12.70;;;;;;;6.83;67.51;102228.31;5127457;28;20039;-88
2023/01/02 02:28:58;;;;;;;20.58;13.05;;;;;;;7.06;67.35;102269.63;5122571;28;20028;-87
2023/01/02 02:31:54;;;;;;;23.00;13.88;;;;;;;7.09;67.53;102273.91;5126326;28;20032;-89
2023/01/02 02:34:31;;;;;;;20.40;13.00;;;;;;;7.07;67.53;102262.44;5142810;28;20043;-86
2023/01/02 02:37:18;;;;;;;22.73;13.40;;;;;;;6.90;67.75;102255.50;5108616;28;20061;-87
2023/01/02 02:39:56;;;;;;;21.95;13.38;;;;;;;6.99;67.67;102265.63;5118672;28;20024;-87
2023/01/02 02:42:25;;;;;;;22.20;13.00;;;;;;;6.97;67.61;102268.38;5142669;28;20099;-88
2023/01/02 02:45:02;;;;;;;22.02;13.65;;;;;;;6.95;67.83;102264.09;5150791;28;20027;-88
2023/01/02 02:48:06;;;;;;;20.10;13.00;;;;;;;6.83;67.97;102257.72;5146223;28;20094;-88
2023/01/02 02:50:38;;;;;;;19.60;13.00;;;;;;;6.83;68.31;102260.38;5142066;27;20015;-87
2023/01/02 02:53:22;;;;;;;23.42;14.07;;;;;;;6.71;68.40;102258.50;5128474;28;20028;-87
2023/01/02 02:55:51;;;;;;;22.98;14.95;;;;;;;6.60;68.85;102252.97;5113673;28;20023;-87
2023/01/02 02:58:16;;;;;;;26.25;14.75;;;;;;;6.44;68.62;102232.56;5112170;27;20031;-88
2023/01/02 03:00:42;;;;;;;22.60;14.70;;;;;;;6.51;68.88;102249.06;5130769;27;20045;-88
2023/01/02 03:03:18;;;;;;;23.80;15.40;;;;;;;6.65;68.63;102261.53;5126123;27;20034;-89
2023/01/02 03:06:11;;;;;;;23.75;14.82;;;;;;;6.64;68.67;102262.53;5130852;27;20260;-88
2023/01/02 03:08:39;;;;;;;24.98;15.40;;;;;;;6.66;69.09;102271.31;5133537;27;20039;-88
2023/01/02 03:11:05;;;;;;;24.52;15.25;;;;;;;6.45;69.27;102250.31;5146396;27;20072;-87
2023/01/02 03:13:56;;;;;;;23.40;15.05;;;;;;;6.54;69.05;102268.44;5111404;27;20019;-88
2023/01/02 03:16:32;;;;;;;21.38;13.95;;;;;;;6.46;69.43;102270.75;5137823;27;20046;-89
2023/01/02 03:19:00;;;;;;;24.00;13.98;;;;;;;6.54;69.20;102281.78;5124936;27;20094;-88
2023/01/02 03:21:40;;;;;;;22.27;14.13;;;;;;;6.39;69.50;102263.19;5143446;27;20175;-86
2023/01/02 03:24:08;;;;;;;26.45;15.88;;;;;;;6.31;70.10;102274.34;5146885;27;20037;-88
2023/01/02 03:26:34;;;;;;;22.25;13.65;;;;;;;6.39;69.94;102272.06;5128608;27;20054;-89
2023/01/02 03:29:03;;;;;;;27.40;14.63;;;;;;;6.38;69.79;102275.69;5114162;28;20019;-88
2023/01/02 03:31:29;;;;;;;22.42;14.50;;;;;;;6.33;69.90;102289.31;5120778;28;20447;-87
2023/01/02 03:34:00;;;;;;;24.27;15.43;;;;;;;6.19;69.81;102248.38;5113275;28;20035;-88
2023/01/02 03:36:26;;;;;;;23.63;15.20;;;;;;;6.41;69.90;102288.84;5091052;28;20032;-87
2023/01/02 03:39:03;;;;;;;24.27;15.40;;;;;;;6.33;70.01;102273.28;5097879;28;20028;-87
2023/01/02 03:41:35;;;;;;;26.20;16.13;;;;;;;6.35;69.83;102275.88;5128320;28;20051;-88
2023/01/02 03:44:00;;;;;;;26.98;15.50;;;;;;;6.28;69.91;102258.50;5123355;28;20107;-88
2023/01/02 03:46:45;;;;;;;24.70;15.80;;;;;;;6.43;69.86;102278.91;5093253;28;20027;-88
2023/01/02 03:49:15;;;;;;;25.85;15.88;;;;;;;6.26;69.80;102252.41;5125048;27;20084;-89
2023/01/02 03:51:40;;;;;;;27.40;16.40;;;;;;;6.24;70.22;102259.66;5125916;28;20019;-89
2023/01/02 03:54:06;;;;;;;25.08;14.73;;;;;;;6.26;70.01;102255.91;5118887;28;20032;-89
2023/01/02 03:56:55;;;;;;;25.67;15.10;;;;;;;6.00;70.80;102248.66;5124320;28;20080;-88
2023/01/02 03:59:33;;;;;;;28.98;16.20;;;;;;;6.18;70.82;102278.69;5112021;28;20020;-90
2023/01/02 04:02:03;;;;;;;24.58;15.73;;;;;;;6.30;70.47;102292.19;5124387;27;20023;-87
2023/01/02 04:04:54;;;;;;;26.35;16.33;;;;;;;6.30;70.58;102283.31;5140869;27;20023;-87
2023/01/02 04:07:33;;;;;;;22.02;14.88;;;;;;;6.20;70.80;102288.34;5138026;27;20569;-86
2023/01/02 04:09:59;;;;;;;31.63;17.85;;;;;;;6.21;70.51;102284.72;5127714;27;20115;-87
2023/01/02 04:12:24;;;;;;;30.80;18.70;;;;;;;6.26;70.63;102293.31;5093618;27;20027;-89
2023/01/02 04:15:07;;;;;;;26.23;16.05;;;;;;;6.18;70.85;102268.03;5111831;28;20269;-88
2023/01/02 04:17:49;;;;;;;27.00;15.68;;;;;;;6.23;70.78;102301.53;5131644;27;20095;-88
2023/01/02 04:20:21;;;;;;;37.33;19.80;;;;;;;6.07;70.78;102280.22;5131222;27;20034;-86
2023/01/02 04:22:50;;;;;;;35.35;20.20;;;;;;;6.19;70.88;102289.31;5128277;27;20038;-88
2023/01/02 04:25:16;;;;;;;36.40;20.33;;;;;;;5.93;71.18;102266.81;5129518;27;20032;-88
2023/01/02 04:27:54;;;;;;;33.05;19.67;;;;;;;6.22;70.99;102297.13;5130404;27;20082;-87
2023/01/02 04:30:20;;;;;;;36.58;20.55;;;;;;;6.16;70.61;102283.28;5125702;27;20027;-88
2023/01/02 04:32:46;;;;;;;31.20;18.98;;;;;;;6.07;71.09;102287.38;5112061;27;20027;-87
2023/01/02 04:35:17;;;;;;;28.98;18.23;;;;;;;6.09;71.03;102291.66;5114158;27;20035;-89
2023/01/02 04:37:43;;;;;;;28.83;18.25;;;;;;;5.98;71.14;102275.44;5115587;27;21349;-87
2023/01/02 04:40:29;;;;;;;28.73;18.48;;;;;;;6.18;70.94;102295.59;5113031;27;20023;-87
2023/01/02 04:42:55;;;;;;;28.05;18.77;;;;;;;6.17;71.13;102303.69;5110546;28;20028;-87
2023/01/02 04:45:20;;;;;;;41.13;21.52;;;;;;;6.05;70.88;102274.09;5108328;27;20031;-88
2023/01/02 04:47:47;;;;;;;29.48;18.88;;;;;;;6.23;70.89;102295.34;5143431;27;20058;-88
2023/01/02 04:50:12;;;;;;;27.52;18.10;;;;;;;6.15;70.73;102279.75;5142421;27;20084;-87
2023/01/02 04:52:38;;;;;;;24.55;16.70;;;;;;;6.01;70.27;102261.88;5108029;28;20015;-88
2023/01/02 04:55:07;;;;;;;23.67;16.20;;;;;;;5.99;70.94;102273.59;5103249;28;20032;-87
2023/01/02 04:57:32;;;;;;;26.33;16.95;;;;;;;5.96;70.93;102269.31;5098346;28;20016;-87
2023/01/02 04:59:58;;;;;;;23.70;16.98;;;;;;;6.23;70.59;102306.88;5131400;27;20103;-87
2023/01/02 05:02:23;;;;;;;23.30;16.90;;;;;;;5.97;70.77;102273.72;5112831;27;20030;-86
2023/01/02 05:04:49;;;;;;;27.57;17.63;;;;;;;6.19;70.64;102304.47;5123491;27;20039;-88
2023/01/02 05:07:14;;;;;;;24.93;16.70;;;;;;;6.09;70.52;102280.13;5118884;27;20277;-87
2023/01/02 05:09:40;;;;;;;26.60;17.48;;;;;;;6.18;70.51;102289.38;5147791;27;20076;-86
2023/01/02 05:12:05;;;;;;;28.13;18.73;;;;;;;6.02;70.43;102258.28;5122869;28;20035;-84
2023/01/02 05:14:31;;;;;;;26.07;16.93;;;;;;;6.13;70.19;102287.88;5117464;28;20303;-84
2023/01/02 05:16:56;;;;;;;27.93;17.47;;;;;;;6.16;70.46;102293.94;5143733;27;20279;-86
2023/01/02 05:19:22;;;;;;;27.63;18.07;;;;;;;6.09;70.50;102286.31;5130566;27;20286;-85
2023/01/02 05:24:31;;;;;;;31.42;20.08;;;;;;;6.00;70.28;102278.00;5121583;28;20046;-87
2023/01/02 05:26:57;;;;;;;35.73;20.83;;;;;;;5.99;70.86;102302.97;5104813;28;20336;-88
2023/01/02 05:29:23;;;;;;;38.35;21.88;;;;;;;5.80;70.97;102274.66;5132411;27;20752;-87
2023/01/02 05:31:48;;;;;;;35.35;21.80;;;;;;;6.01;70.83;102309.09;5107080;27;20054;-88
2023/01/02 05:34:14;;;;;;;38.28;23.23;;;;;;;5.91;71.15;102296.25;5106667;28;20046;-87
2023/01/02 05:36:39;;;;;;;37.25;21.40;;;;;;;5.92;70.80;102294.44;5141813;27;20026;-88
2023/01/02 05:39:11;;;;;;;36.78;20.80;;;;;;;5.97;70.76;102295.09;5123919;27;20042;-87
2023/01/02 05:41:38;;;;;;;34.60;21.30;;;;;;;5.82;70.64;102267.44;5100499;28;20070;-87
2023/01/02 05:44:04;;;;;;;33.08;22.50;;;;;;;5.95;71.07;102296.97;5116097;27;20015;-86
2023/01/02 05:46:30;;;;;;;39.42;23.45;;;;;;;5.93;71.27;102306.84;5129204;27;20038;-88
2023/01/02 05:48:55;;;;;;;35.72;22.05;;;;;;;5.95;70.86;102310.31;5104742;28;20028;-85
2023/01/02 05:51:21;;;;;;;31.45;21.10;;;;;;;5.98;70.74;102318.16;5118524;28;20019;-85
2023/01/02 05:53:47;;;;;;;32.47;20.77;;;;;;;5.93;71.00;102302.38;5114158;27;20502;-86
2023/01/02 05:56:14;;;;;;;34.43;21.23;;;;;;;5.91;70.86;102306.06;5127211;27;20035;-87
2023/01/02 05:58:42;;;;;;;37.45;22.23;;;;;;;5.89;70.67;102291.97;5100727;28;20343;-86
2023/01/02 06:01:15;;;;;;;41.70;23.85;;;;;;;6.11;70.56;102332.50;5107418;28;20023;-88
2023/01/02 06:03:44;;;;;;;39.83;22.05;;;;;;;6.03;70.56;102313.38;5136389;27;20035;-88
2023/01/02 06:06:10;;;;;;;39.80;22.80;;;;;;;5.91;70.21;102295.41;5125373;27;20035;-86
2023/01/02 06:08:35;;;;;;;43.22;24.40;;;;;;;5.81;70.67;102299.56;5116472;28;20034;-87
2023/01/02 06:11:01;;;;;;;42.05;24.17;;;;;;;6.04;70.76;102324.91;5121339;28;20024;-87
2023/01/02 06:13:31;;;;;;;39.53;22.50;;;;;;;5.99;70.53;102317.19;5113961;28;20012;-87
2023/01/02 06:15:57;;;;;;;33.30;19.25;;;;;;;6.06;70.98;102328.34;5100458;28;20060;-88
2023/01/02 06:18:22;;;;;;;35.10;20.25;;;;;;;5.96;70.65;102306.69;5107279;28;20034;-88
2023/01/02 06:20:48;;;;;;;38.88;20.90;;;;;;;5.97;70.75;102308.44;5116899;28;20114;-87
2023/01/02 06:23:13;;;;;;;36.85;20.60;;;;;;;6.18;70.51;102334.78;5129939;28;20031;-88
2023/01/02 06:25:39;;;;;;;37.58;20.33;;;;;;;6.11;70.57;102315.59;5093278;28;20071;-87
2023/01/02 06:28:05;;;;;;;31.75;20.35;;;;;;;6.21;70.41;102324.78;5122675;27;20121;-88
2023/01/02 06:30:30;;;;;;;33.87;20.33;;;;;;;6.30;70.16;102326.06;5126966;28;20019;-87
2023/01/02 06:32:56;;;;;;;31.55;18.60;;;;;;;6.37;70.28;102331.88;5114654;28;20261;-88
2023/01/02 06:35:22;;;;;;;28.52;18.42;;;;;;;6.55;70.05;102353.00;5123603;27;20042;-88
2023/01/02 06:37:47;;;;;;;41.58;23.10;;;;;;;6.51;70.22;102332.75;5117832;27;20153;-86
2023/01/02 06:40:13;;;;;;;34.90;22.02;;;;;;;6.69;69.96;102348.63;5130372;27;20046;-86
2023/01/02 06:42:38;;;;;;;31.80;20.73;;;;;;;6.62;69.96;102323.22;5147021;27;20019;-87
2023/01/02 06:45:05;;;;;;;37.90;20.60;;;;;;;6.70;69.85;102320.94;5099780;28;20470;-87
2023/01/02 06:47:30;;;;;;;30.42;20.08;;;;;;;6.93;69.64;102349.78;5110761;27;20019;-88
2023/01/02 06:49:56;;;;;;;32.40;19.65;;;;;;;6.73;69.27;102302.88;5131388;27;20038;-88
2023/01/02 06:52:22;;;;;;;31.88;20.58;;;;;;;6.87;69.16;102315.38;5112809;27;20034;-88
2023/01/02 06:54:47;;;;;;;;;;;;;;;7.21;68.89;102355.19;5106977;28;20042;-86
2023/01/02 06:57:13;;;;;;;;;;;;;;;7.24;68.97;102360.34;5123739;28;19912;-87
2023/01/02 06:59:38;;;;;;;36.93;22.83;;;;;;;7.33;68.56;102349.06;5135288;27;19927;-87
2023/01/02 07:02:04;;;;;;;42.35;23.98;;;;;;;7.41;68.49;102354.78;5109865;27;20036;-89
2023/01/02 07:04:30;;;;;;;36.25;21.33;;;;;;;7.33;68.18;102312.47;5105568;27;20030;-88
2023/01/02 07:06:56;;;;;;;33.85;20.75;;;;;;;7.51;67.71;102331.78;5105919;28;20051;-87
2023/01/02 07:09:21;;;;;;;38.42;24.00;;;;;;;7.56;67.09;102315.44;5125959;27;20110;-89
2023/01/02 07:11:47;;;;;;;50.15;26.40;;;;;;;7.76;67.02;102338.22;5112460;27;20031;-87
2023/01/02 07:14:12;;;;;;;46.17;27.35;;;;;;;7.83;66.82;102332.34;5129057;27;20059;-87
2023/01/02 07:16:38;;;;;;;41.67;26.43;;;;;;;8.01;66.38;102340.13;5113410;27;20030;-88
2023/01/02 07:19:04;;;;;;;50.58;28.08;;;;;;;8.32;65.91;102356.81;5130337;27;20034;-88
2023/01/02 07:21:29;;;;;;;48.97;28.27;;;;;;;8.93;64.37;102327.56;5113596;27;20099;-88
2023/01/02 07:23:55;;;;;;;49.25;28.25;;;;;;;11.22;58.13;102350.53;5109539;28;20107;-87
2023/01/02 07:26:21;;;;;;;44.65;27.92;;;;;;;13.56;51.57;102334.13;5103135;28;20114;-89
2023/01/02 07:28:46;;;;;;;42.67;26.95;;;;;;;15.50;46.13;102335.50;5119644;28;20396;-88
2023/01/02 07:31:12;;;;;;;;;;;;;;;17.38;42.11;102339.63;5098978;28;20042;-88
2023/01/02 07:33:38;;;;;;;38.50;26.15;;;;;;;18.91;38.62;102327.25;5142840;27;19907;-87
2023/01/02 07:36:04;;;;;;;;;;;;;;;20.35;35.13;102327.72;5131188;28;20029;-86
2023/01/02 07:38:30;;;;;;;45.90;26.45;;;;;;;21.31;32.32;102317.75;5144636;27;19912;-87
2023/01/02 07:40:55;;;;;;;43.85;30.00;;;;;;;22.36;30.72;102304.50;5134607;27;20064;-89
2023/01/02 07:43:21;;;;;;;49.78;35.70;;;;;;;23.50;29.04;102315.00;5148529;27;20088;-88
2023/01/02 07:45:47;;;;;;;40.10;30.35;;;;;;;24.39;27.45;102313.84;5134941;27;20023;-88
2023/01/02 07:48:12;;;;;;;45.67;31.67;;;;;;;25.32;25.80;102319.13;5150677;27;20019;-87
2023/01/02 07:50:38;;;;;;;43.78;30.98;;;;;;;25.89;24.80;102302.72;5127401;28;20027;-86
2023/01/02 07:53:04;;;;;;;39.15;30.15;;;;;;;26.55;23.78;102306.84;5135999;27;20019;-89
2023/01/02 07:55:29;;;;;;;37.28;29.70;;;;;;;27.25;22.63;102289.03;5128189;27;20036;-89
2023/01/02 07:57:55;;;;;;;39.15;27.77;;;;;;;28.01;21.73;102309.59;5145084;27;20023;-88
2023/01/02 08:00:21;;;;;;;33.22;26.08;;;;;;;28.39;21.26;102325.72;5143354;27;20533;-90
2023/01/02 08:02:48;;;;;;;32.45;25.30;;;;;;;28.55;21.10;102304.00;5139903;27;20054;-89
2023/01/02 08:05:15;;;;;;;33.97;24.17;;;;;;;29.03;20.54;102322.19;5137263;27;20088;-89
2023/01/02 08:07:41;;;;;;;32.80;24.52;;;;;;;29.31;20.01;102304.78;5113512;28;20104;-88
2023/01/02 08:10:07;;;;;;;29.58;22.70;;;;;;;29.54;19.73;102289.97;5145528;27;20447;-87
2023/01/02 08:12:33;;;;;;;32.83;25.38;;;;;;;30.16;19.17;102324.34;5100163;28;20019;-89
2023/01/02 08:14:58;;;;;;;30.58;25.38;;;;;;;30.11;18.76;102300.16;5129500;27;20700;-88
2023/01/02 08:17:24;;;;;;;30.38;26.10;;;;;;;30.31;18.86;102302.41;5139941;27;20042;-89
2023/01/02 08:19:49;;;;;;;32.17;26.77;;;;;;;30.12;18.68;102301.81;5132414;27;20027;-89
2023/01/02 08:22:15;;;;;;;26.52;22.90;;;;;;;30.07;19.11;102297.03;5132680;27;20019;-89
2023/01/02 08:24:40;;;;;;;26.73;22.80;;;;;;;30.23;18.75;102298.09;5135400;27;20411;-88
2023/01/02 08:27:06;;;;;;;23.17;19.02;;;;;;;30.64;18.40;102301.50;5112272;28;20100;-88
2023/01/02 08:29:31;;;;;;;26.98;21.25;;;;;;;31.16;18.07;102288.28;5146540;27;20023;-90
2023/01/02 08:32:00;;;;;;;18.20;15.65;;;;;;;31.24;17.84;102297.00;5123617;27;20038;-89
2023/01/02 08:34:26;;;;;;;21.08;14.85;;;;;;;31.19;18.00;102296.94;5146573;27;20083;-88
2023/01/02 08:36:51;;;;;;;22.02;15.82;;;;;;;32.51;17.31;102296.47;5147314;27;20031;-88
2023/01/02 08:39:17;;;;;;;19.65;15.73;;;;;;;33.28;16.67;102277.31;5137197;27;20503;-86
2023/01/02 08:41:42;;;;;;;26.30;15.45;;;;;;;33.76;16.16;102291.91;5130549;27;20027;-87
2023/01/02 08:44:15;;;;;;;19.25;13.63;;;;;;;34.38;15.15;102286.28;5125447;28;20028;-87
2023/01/02 08:46:40;;;;;;;15.23;12.55;;;;;;;34.82;15.25;102280.84;5124389;28;20039;-88
2023/01/02 08:49:06;;;;;;;16.52;12.35;;;;;;;35.19;14.40;102284.31;5128208;27;20035;-88
2023/01/02 08:51:34;;;;;;;17.05;11.02;;;;;;;35.04;14.31;102280.44;5146103;27;20091;-88
2023/01/02 08:53:59;;;;;;;11.95;10.73;;;;;;;35.55;13.84;102254.13;5144974;27;20034;-89
2023/01/02 08:56:29;;;;;;;19.13;11.13;;;;;;;35.85;13.29;102247.47;5134532;27;20094;-89
2023/01/02 08:58:59;;;;;;;19.80;11.00;;;;;;;36.17;13.30;102248.84;5148918;27;20031;-87
2023/01/02 09:01:25;;;;;;;11.57;10.38;;;;;;;36.60;13.00;102257.34;5130229;27;20175;-88
2023/01/02 09:03:53;;;;;;;17.95;11.48;;;;;;;36.58;13.20;102265.22;5144255;27;20023;-89
2023/01/02 09:06:19;;;;;;;13.40;11.50;;;;;;;36.95;12.58;102269.22;5132102;27;20020;-88
2023/01/02 09:08:45;;;;;;;11.43;10.13;;;;;;;37.40;12.37;102255.69;5140960;27;20049;-88
2023/01/02 09:11:20;;;;;;;11.70;9.50;;;;;;;37.31;12.43;102266.75;5124602;28;20028;-89
2023/01/02 09:13:46;;;;;;;17.48;10.55;;;;;;;37.84;11.98;102257.22;5123098;28;20031;-89
2023/01/02 09:16:11;;;;;;;19.10;9.88;;;;;;;38.35;11.62;102245.03;5141697;27;20127;-88
2023/01/02 09:18:37;;;;;;;11.50;9.32;;;;;;;37.96;11.59;102249.13;5116257;28;20040;-88
2023/01/02 09:21:03;;;;;;;12.43;9.32;;;;;;;37.92;11.98;102231.22;5120763;28;20029;-88
2023/01/02 09:23:29;;;;;;;10.27;9.27;;;;;;;37.99;12.04;102231.63;5124535;27;20039;-89
2023/01/02 09:26:02;;;;;;;9.25;8.32;;;;;;;38.43;11.26;102235.84;5134063;27;20573;-89
2023/01/02 09:28:28;;;;;;;9.98;8.23;;;;;;;38.14;11.62;102210.06;5123847;27;20059;-88
2023/01/02 09:30:54;;;;;;;10.68;8.90;;;;;;;37.71;12.25;102213.09;5120514;27;20049;-88
2023/01/02 09:33:20;;;;;;;11.05;8.93;;;;;;;38.31;11.62;102218.69;5141386;27;20015;-89
2023/01/02 09:35:45;;;;;;;11.18;8.75;;;;;;;38.35;11.70;102222.56;5108457;28;20024;-88
2023/01/02 09:38:11;;;;;;;10.63;9.50;;;;;;;38.41;11.66;102196.00;5130110;27;20027;-89
2023/01/02 09:40:39;;;;;;;11.15;9.13;;;;;;;37.95;11.71;102196.09;5128297;27;20448;-89
2023/01/02 09:43:05;;;;;;;10.38;8.48;;;;;;;38.48;11.72;102208.84;5131208;27;20027;-88
2023/01/02 09:45:30;;;;;;;13.65;9.07;;;;;;;38.31;11.41;102206.66;5138924;27;20026;-88
2023/01/02 09:47:56;;;;;;;11.02;7.88;;;;;;;38.39;11.24;102167.41;5137645;27;20027;-88
2023/01/02 09:50:24;;;;;;;8.63;7.10;;;;;;;37.80;11.27;102205.63;5123672;28;20019;-88
2023/01/02 09:52:56;;;;;;;9.15;7.75;;;;;;;37.55;11.69;102170.47;5127113;27;20016;-88
2023/01/02 09:55:57;;;;;;;15.80;8.05;;;;;;;38.42;11.18;102197.69;5106496;28;20062;-86
2023/01/02 09:58:28;;;;;;;13.43;7.70;;;;;;;38.89;10.90;102200.31;5131506;28;20118;-87
2023/01/02 10:00:54;;;;;;;7.03;6.15;;;;;;;38.95;10.24;102164.50;5147818;27;20034;-87
2023/01/02 10:03:35;;;;;;;8.30;6.70;;;;;;;38.94;10.19;102171.28;5120337;28;20031;-89
2023/01/02 10:06:08;;;;;;;7.72;6.55;;;;;;;39.42;10.13;102174.31;5136367;27;20034;-87
2023/01/02 10:08:45;;;;;;;7.85;6.60;;;;;;;39.83;9.78;102183.69;5138747;27;20023;-88
2023/01/02 10:11:30;;;;;;;7.72;6.53;;;;;;;39.74;9.61;102185.59;5142624;28;20136;-88
2023/01/02 10:14:01;;;;;;;10.20;6.55;;;;;;;39.97;9.54;102158.19;5135191;28;20033;-87
2023/01/02 10:16:30;;;;;;;7.85;6.40;;;;;;;39.94;9.22;102164.50;5145128;28;20110;-89
2023/01/02 10:18:56;;;;;;;6.13;5.45;;;;;;;38.67;9.96;102152.50;5124469;28;20030;-88
2023/01/02 10:21:32;;;;;;;5.93;5.30;;;;;;;38.51;9.75;102174.50;5123712;28;20463;-87
2023/01/02 10:24:28;;;;;;;6.13;5.53;;;;;;;38.04;10.31;102176.59;5110638;28;20031;-88
2023/01/02 10:26:54;;;;;;;12.07;5.45;;;;;;;38.05;10.20;102172.63;5137523;28;20503;-89
2023/01/02 10:29:39;;;;;;;6.55;5.07;;;;;;;38.08;10.17;102153.19;5146736;28;20038;-88
2023/01/02 10:32:06;;;;;;;6.70;5.32;;;;;;;37.57;10.36;102146.56;5118596;28;20491;-86
2023/01/02 10:34:39;;;;;;;10.68;5.40;;;;;;;37.91;9.98;102131.34;5119519;28;20032;-88
2023/01/02 10:37:12;;;;;;;6.25;5.30;;;;;;;38.04;10.17;102131.66;5127451;28;20020;-87
2023/01/02 10:39:39;;;;;;;6.90;5.45;;;;;;;37.89;10.42;102113.97;5143142;27;20055;-87
2023/01/02 10:42:05;;;;;;;7.20;5.30;;;;;;;37.50;10.78;102126.47;5107696;28;20117;-85
2023/01/02 10:44:32;;;;;;;6.88;5.93;;;;;;;37.67;10.43;102128.69;5099730;28;20458;-88
2023/01/02 10:46:58;;;;;;;9.45;5.53;;;;;;;37.98;10.40;102116.88;5119830;28;20034;-87
2023/01/02 10:49:24;;;;;;;7.00;5.80;;;;;;;38.02;10.05;102117.94;5121761;28;20096;-88
2023/01/02 10:51:52;;;;;;;8.70;5.50;;;;;;;36.94;10.77;102105.00;5112261;28;20023;-91
2023/01/02 10:54:18;;;;;;;9.52;5.68;;;;;;;37.46;10.67;102122.59;5116476;28;20032;-88
2023/01/02 10:56:45;;;;;;;8.93;5.75;;;;;;;37.43;10.58;102100.81;5143311;28;20459;-88
2023/01/02 10:59:22;;;;;;;7.85;6.10;;;;;;;37.57;10.66;102107.28;5138418;28;20105;-88
2023/01/02 11:01:51;;;;;;;6.70;5.50;;;;;;;37.06;10.98;102108.16;5118423;28;20060;-88
2023/01/02 11:04:20;;;;;;;7.60;5.05;;;;;;;37.23;10.60;102103.97;5121242;28;20051;-88
2023/01/02 11:07:00;;;;;;;8.50;5.63;;;;;;;37.05;10.94;102112.09;5105276;28;20118;-88
2023/01/02 11:09:27;;;;;;;7.75;5.80;;;;;;;37.21;10.85;102092.25;5137955;27;20023;-87
2023/01/02 11:11:58;;;;;;;7.15;5.70;;;;;;;36.96;10.92;102074.69;5132033;27;20015;-86
2023/01/02 11:14:32;;;;;;;7.68;5.60;;;;;;;37.00;10.72;102091.75;5126514;27;20027;-89
2023/01/02 11:17:13;;;;;;;10.98;5.78;;;;;;;36.15;11.69;102099.94;5128423;27;20027;-87
2023/01/02 11:19:48;;;;;;;9.85;6.13;;;;;;;36.43;11.74;102111.34;5145253;27;20121;-87
2023/01/02 11:22:18;;;;;;;6.68;5.68;;;;;;;36.47;11.31;102087.22;5129489;27;20043;-88
2023/01/02 11:25:13;;;;;;;9.85;6.63;;;;;;;36.49;11.32;102096.97;5125784;28;20092;-88
2023/01/02 11:27:42;;;;;;;7.45;6.07;;;;;;;36.28;11.17;102093.63;5135809;27;20061;-88
2023/01/02 11:30:19;;;;;;;9.77;6.55;;;;;;;36.19;11.54;102089.81;5131207;27;20281;-88
2023/01/02 11:32:44;;;;;;;7.85;6.05;;;;;;;36.30;11.67;102074.56;5125893;27;20467;-89